Aeroporto :
LOGIN :

Iscrizione | Disclaimer

   EN    FR    IT 

 










Sommario :    VFR   VFR Marginale   IFR   IFR Intensivo   IFR Molto Intensivo
Visibilità : 
Base nubi : 
>= 8 km
>= 3000ft
5 / 8 km
1000 / 3000 ft
1500m / 5 km
500 / 1000 ft
800 / 1500m
200 / 500 ft
< 800m
< 200 ft
Simboli :   Temporali  Nebbia  Neve Forte  Precipitazioni Forti  Vento > 20 kt
SIGMETs :   Varie  Temporali  Ghiacco  Turbolenza  Onda orograficha  Ceneri Vulcaniche






- Altitudine del aeroporto : 584 ft


LFPV - Villacoublay Vélizy

ULTIMO METAR :
  • 222300Z AUTO 02008KT 340V060 7000 OVC008 13/12 Q1019 NOSIG

METARs OBSOLETI :
  • 222230Z AUTO 02010KT 340V050 7000 OVC008 13/11 Q1019 NOSIG
  • 222200Z AUTO 03009KT 350V070 7000 OVC008 13/11 Q1019 NOSIG
  • 222130Z AUTO 02010KT 350V050 7000 OVC008 13/11 Q1018 NOSIG
  • 222100Z AUTO 03008KT 360V070 7000 OVC009 13/11 Q1018 NOSIG
  • 222030Z AUTO 02010KT 350V050 7000 OVC008 13/12 Q1018 NOSIG

TAF TAF LFPV
Valido dal 22 a 21 ore il 23 a 21 ore UTC


222000Z 2221/2321 02010KT 9999 OVC008 TX18/2316Z TN13/2306Z
TEMPO 2301/2308 OVC003
BECMG 2308/2310 BKN012
BECMG 2311/2313 BKN020
FM231800 02010KT CAVOK



MetMap, La meteo Aeronautica in un colpo d'occhio ! - Copyright ORBIFLY Dicembre 2007 - Disclaimer

ORBIFLY MET'MAP TEAM :

Programmazione e sviluppo : Alexandra Zaïnal
Concezione : Baudouin d'Aumeries
Aiuto per la programmazione : Marc-Olivier Méhu
Supporto tecnico e logistico : Manuel Goepfert
Aiuto per la traduzione : Arnaldo La Scala

Contatto : metmap@orbifly.com




FONTI E CREDITI :

   NOAA